aviador You're here:

CYDN Decoded Metar

DAUPHIN in MB, CANADA
Report Time2017-07-21 08:37:00
UTC Time2017-07-21 08:43:58
Flight Rules ifr IFR
Wind230° at 05 kt
W.Decomp.*RWY 20: 4.6 kt HW 2.0 kt RCW
RWY 26: 4.0 kt HW 3 kt LCW
RWY 14: 0.6 kt HW 5.0 kt RCW
W.Rank230° ranks 7
Current wind is below 230° avg. (8.0)
Visibility9999 m
Phenomena:N/A
Clouds:Broken 006 Hf
Expected CloudBase > 400 ft AGL from Temp-Dew spread
Ceiling600 ft
Temp14°C (ISA +1)
Dew Point13°C (94% RH)
AAT13.1°C
QNH1013 hPa
Density Alt1,322 ft
Elevation1,001 ft
Report Wrong Elevation
Raw Report
SPECI CYDN 210837Z AUTO 23005KT 9SM BKN006 14/13 A2991 RMK SLP133 DENSITY
ALT 1000FT=

Extra information for CYDN:More info

Metar Taf Metar & Taf Last 4 Metars F.Rules Stats Wind Profile Meteogram Temp Stats Airport Information Weather charts Add Link Nearby VenuesMetar ALERT Operation Metar Decoded Social comments